createdAt,value
2018-06-03T00:00:46.746Z,95.10
2018-06-03T00:03:19.425Z,95.10
2018-06-03T00:05:51.902Z,95.10
2018-06-03T00:08:24.287Z,95.10
2018-06-03T00:10:56.700Z,95.20
2018-06-03T00:13:29.382Z,95.20
2018-06-03T00:16:01.780Z,95.10
2018-06-03T00:18:34.158Z,95.30
2018-06-03T00:21:17.872Z,95.30
2018-06-03T00:23:50.406Z,94.90
2018-06-03T00:26:23.044Z,95.20
2018-06-03T00:28:55.686Z,95.00
2018-06-03T00:31:28.107Z,95.10
2018-06-03T00:34:00.698Z,95.30
2018-06-03T00:36:43.281Z,95.30
2018-06-03T00:39:15.664Z,95.50
2018-06-03T00:41:48.061Z,95.40
2018-06-03T00:44:20.442Z,95.60
2018-06-03T00:46:52.841Z,95.60
2018-06-03T00:49:25.230Z,95.60
2018-06-03T00:51:57.950Z,95.60
2018-06-03T00:54:30.337Z,95.50
2018-06-03T00:57:09.821Z,95.60
2018-06-03T00:59:42.474Z,95.60
2018-06-03T01:02:15.182Z,95.40
2018-06-03T01:04:47.567Z,95.70
2018-06-03T01:07:19.970Z,95.60
2018-06-03T01:09:52.360Z,95.60
2018-06-03T01:12:24.762Z,95.80
2018-06-03T01:14:57.204Z,95.80
2018-06-03T01:17:29.606Z,95.60
2018-06-03T01:20:02.213Z,95.70
2018-06-03T01:22:34.638Z,95.90
2018-06-03T01:25:07.033Z,95.90
2018-06-03T01:27:39.426Z,95.60
2018-06-03T01:30:12.110Z,95.70
2018-06-03T01:32:44.768Z,95.70
2018-06-03T01:35:17.153Z,95.60
2018-06-03T01:37:49.557Z,95.70
2018-06-03T01:40:21.969Z,95.90
2018-06-03T01:42:54.378Z,95.90
2018-06-03T01:45:26.782Z,95.90
2018-06-03T01:47:59.191Z,96.30
2018-06-03T01:50:31.579Z,95.90
2018-06-03T01:53:04.341Z,95.70
2018-06-03T01:55:36.733Z,95.70
2018-06-03T01:58:09.390Z,95.80
2018-06-03T02:00:42.070Z,95.90
2018-06-03T02:03:14.774Z,96.20
2018-06-03T02:05:47.162Z,96.10
2018-06-03T02:08:19.570Z,96.30
2018-06-03T02:10:51.958Z,96.20
2018-06-03T02:13:24.381Z,96.20
2018-06-03T02:15:56.766Z,96.30
2018-06-03T02:18:29.410Z,96.20
2018-06-03T02:21:01.799Z,96.30
2018-06-03T02:23:34.230Z,96.30
2018-06-03T02:26:06.627Z,96.40
2018-06-03T02:31:11.504Z,96.60
2018-06-03T02:33:43.914Z,96.60
2018-06-03T02:36:16.629Z,96.70
2018-06-03T02:38:49.042Z,96.70
2018-06-03T02:41:21.461Z,96.80
2018-06-03T02:43:54.146Z,96.80
2018-06-03T02:46:26.526Z,97.00
2018-06-03T02:48:58.922Z,97.00
2018-06-03T02:51:31.466Z,97.00
2018-06-03T02:56:36.384Z,97.20
2018-06-03T02:59:08.781Z,97.10
2018-06-03T03:01:41.445Z,97.30
2018-06-03T03:04:13.861Z,97.40
2018-06-03T03:06:46.255Z,97.50
2018-06-03T03:09:18.682Z,97.60
2018-06-03T03:11:51.082Z,97.60
2018-06-03T03:14:23.494Z,97.80
2018-06-03T03:16:55.894Z,97.90
2018-06-03T03:19:28.598Z,98.10
2018-06-03T03:22:00.990Z,98.20
2018-06-03T03:24:33.389Z,98.10
2018-06-03T03:27:06.074Z,98.20
2018-06-03T03:29:38.474Z,98.20
2018-06-03T03:32:10.862Z,98.30
2018-06-03T03:34:43.508Z,97.90
2018-06-03T03:37:16.177Z,97.80
2018-06-03T03:39:48.578Z,97.70
2018-06-03T03:44:53.527Z,97.70
2018-06-03T03:47:25.918Z,97.50
2018-06-03T03:49:58.325Z,97.50
2018-06-03T03:52:30.722Z,97.50
2018-06-03T03:55:03.431Z,97.50
2018-06-03T03:57:36.062Z,97.30
2018-06-03T04:00:08.494Z,97.40
2018-06-03T04:02:40.875Z,97.30
2018-06-03T04:05:13.941Z,97.10
2018-06-03T04:07:46.335Z,97.00
2018-06-03T04:10:18.768Z,96.60
2018-06-03T04:12:51.151Z,96.60
2018-06-03T04:15:23.841Z,96.60
2018-06-03T04:17:56.483Z,96.70
2018-06-03T04:20:29.198Z,96.70
2018-06-03T04:23:01.597Z,96.80
2018-06-03T04:25:34.005Z,96.80
2018-06-03T04:28:06.390Z,96.50
2018-06-03T04:30:38.803Z,96.40
2018-06-03T04:33:11.181Z,96.60
2018-06-03T04:35:43.897Z,96.30
2018-06-03T04:38:16.289Z,96.40
2018-06-03T04:40:48.727Z,96.40
2018-06-03T04:43:21.141Z,96.40
2018-06-03T04:45:53.552Z,96.10
2018-06-03T04:48:25.941Z,96.10
2018-06-03T04:50:58.357Z,96.00
2018-06-03T04:56:03.321Z,95.90
2018-06-03T04:58:35.701Z,95.80
2018-06-03T05:01:08.097Z,95.20
2018-06-03T05:03:41.052Z,94.90
2018-06-03T05:06:13.726Z,94.70
2018-06-03T05:08:46.372Z,94.60
2018-06-03T05:11:18.770Z,94.50
2018-06-03T05:13:51.169Z,94.50
2018-06-03T05:16:23.660Z,94.50
2018-06-03T05:18:56.038Z,94.40
2018-06-03T05:21:28.448Z,94.30
2018-06-03T05:24:01.119Z,94.00
2018-06-03T05:26:34.293Z,94.00
2018-06-03T05:29:06.981Z,94.10
2018-06-03T05:31:39.386Z,93.60
2018-06-03T05:34:11.777Z,93.30
2018-06-03T05:36:44.425Z,93.20
2018-06-03T05:39:17.061Z,93.20
2018-06-03T05:41:49.769Z,93.00
2018-06-03T05:44:22.171Z,93.00
2018-06-03T05:46:54.930Z,92.90
2018-06-03T05:49:27.590Z,92.90
2018-06-03T05:52:00.044Z,92.40
2018-06-03T05:54:32.437Z,92.50
2018-06-03T05:57:04.885Z,92.20
2018-06-03T05:59:37.310Z,92.10
2018-06-03T06:02:09.758Z,92.00
2018-06-03T06:04:42.175Z,92.00
2018-06-03T06:07:15.257Z,92.00
2018-06-03T06:09:48.007Z,91.70
2018-06-03T06:12:20.434Z,91.50
2018-06-03T06:14:52.851Z,91.20
2018-06-03T06:17:25.294Z,91.10
2018-06-03T06:19:57.697Z,90.60
2018-06-03T06:22:30.134Z,90.00
2018-06-03T06:25:02.545Z,89.60
2018-06-03T06:27:35.252Z,88.60
2018-06-03T06:30:07.668Z,88.40
2018-06-03T06:32:40.122Z,88.50
2018-06-03T06:35:12.578Z,88.00
2018-06-03T06:37:45.019Z,87.90
2018-06-03T06:40:17.443Z,87.70
2018-06-03T06:42:49.858Z,88.80
2018-06-03T06:45:22.259Z,88.60
2018-06-03T06:47:54.914Z,89.00
2018-06-03T06:50:27.885Z,88.50
2018-06-03T06:53:00.326Z,88.20
2018-06-03T06:55:32.702Z,86.70
2018-06-03T06:58:05.445Z,86.80
2018-06-03T07:00:37.835Z,85.80
2018-06-03T07:03:10.352Z,84.60
2018-06-03T07:05:42.778Z,82.60
2018-06-03T07:08:15.202Z,78.50
2018-06-03T07:10:48.006Z,77.80
2018-06-03T07:13:20.713Z,76.40
2018-06-03T07:15:53.437Z,77.60
2018-06-03T07:18:25.836Z,78.40
2018-06-03T07:20:58.519Z,77.50
2018-06-03T07:23:30.945Z,77.10
2018-06-03T07:26:03.333Z,78.20
2018-06-03T07:28:35.751Z,78.40
2018-06-03T07:31:08.137Z,79.30
2018-06-03T07:33:40.559Z,81.10
2018-06-03T07:36:12.961Z,81.20
2018-06-03T07:38:45.382Z,81.50
2018-06-03T07:41:17.788Z,81.50
2018-06-03T07:43:50.201Z,82.10
2018-06-03T07:46:22.589Z,82.20
2018-06-03T07:48:55.245Z,82.00
2018-06-03T07:51:27.642Z,80.60
2018-06-03T07:54:00.055Z,80.80
2018-06-03T07:56:32.494Z,80.60
2018-06-03T07:59:04.917Z,81.70
2018-06-03T08:01:37.924Z,81.60
2018-06-03T08:04:10.611Z,81.60
2018-06-03T08:06:43.014Z,80.90
2018-06-03T08:09:15.750Z,81.00
2018-06-03T08:14:20.442Z,75.60
2018-06-03T08:16:54.209Z,72.40
2018-06-03T08:19:26.614Z,69.90
2018-06-03T08:21:59.017Z,65.90
2018-06-03T08:24:31.681Z,64.70
2018-06-03T08:27:04.354Z,63.50
2018-06-03T08:29:36.790Z,60.40
2018-06-03T08:32:09.178Z,60.60
2018-06-03T08:34:41.569Z,59.90
2018-06-03T08:37:13.958Z,62.30
2018-06-03T08:39:46.378Z,65.20
2018-06-03T08:42:18.832Z,65.50
2018-06-03T08:44:51.279Z,67.60
2018-06-03T08:47:23.671Z,69.60
2018-06-03T08:49:56.078Z,70.50
2018-06-03T08:52:28.470Z,70.90
2018-06-03T08:55:00.902Z,70.60
2018-06-03T08:57:33.303Z,68.70
2018-06-03T09:00:05.708Z,65.50
2018-06-03T09:02:38.099Z,63.70
2018-06-03T09:05:10.502Z,62.70
2018-06-03T09:07:43.160Z,61.90
2018-06-03T09:10:15.570Z,62.20
2018-06-03T09:12:47.961Z,60.40
2018-06-03T09:15:20.397Z,60.10
2018-06-03T09:17:52.803Z,57.90
2018-06-03T09:20:25.218Z,55.50
2018-06-03T09:22:57.614Z,54.50
2018-06-03T09:25:30.033Z,55.70
2018-06-03T09:28:02.710Z,57.30
2018-06-03T09:30:35.383Z,56.80
2018-06-03T09:33:08.064Z,56.80
2018-06-03T09:35:41.075Z,55.70
2018-06-03T09:38:13.707Z,54.80
2018-06-03T09:40:46.439Z,55.20
2018-06-03T09:43:19.512Z,55.00
2018-06-03T09:45:51.942Z,54.60
2018-06-03T09:48:24.375Z,56.40
2018-06-03T09:50:57.030Z,58.60
2018-06-03T09:53:29.429Z,60.70
2018-06-03T09:56:02.414Z,61.30
2018-06-03T09:58:35.161Z,60.70
2018-06-03T10:01:08.186Z,62.00
2018-06-03T10:03:40.859Z,64.50
2018-06-03T10:06:13.537Z,65.50
2018-06-03T10:08:46.154Z,66.60
2018-06-03T10:11:18.595Z,67.10
2018-06-03T10:13:50.971Z,68.80
2018-06-03T10:16:23.748Z,68.90
2018-06-03T10:18:56.163Z,67.70
2018-06-03T10:21:28.578Z,64.00
2018-06-03T10:24:00.966Z,61.90
2018-06-03T10:26:33.610Z,60.20
2018-06-03T10:29:05.995Z,59.30
2018-06-03T10:31:38.394Z,59.90
2018-06-03T10:34:10.774Z,60.50
2018-06-03T10:36:43.182Z,60.90
2018-06-03T10:39:15.575Z,61.30
2018-06-03T10:41:47.987Z,58.40
2018-06-03T10:44:20.400Z,57.40
2018-06-03T10:46:52.806Z,57.00
2018-06-03T10:49:25.197Z,58.40
2018-06-03T10:51:58.173Z,58.10
2018-06-03T10:54:30.859Z,58.70
2018-06-03T10:57:03.530Z,59.80
2018-06-03T10:59:35.909Z,62.00
2018-06-03T11:02:08.311Z,62.60
2018-06-03T11:04:40.697Z,64.30
2018-06-03T11:07:13.126Z,66.00
2018-06-03T11:09:45.512Z,66.20
2018-06-03T11:12:18.245Z,66.90
2018-06-03T11:14:50.891Z,67.10
2018-06-03T11:17:23.326Z,67.00
2018-06-03T11:19:55.721Z,67.00
2018-06-03T11:22:28.358Z,67.20
2018-06-03T11:25:00.991Z,67.10
2018-06-03T11:27:33.465Z,66.70
2018-06-03T11:30:05.798Z,66.60
2018-06-03T11:32:38.449Z,67.00
2018-06-03T11:35:10.837Z,67.70
2018-06-03T11:37:43.510Z,69.20
2018-06-03T11:40:15.921Z,68.40
2018-06-03T11:42:48.326Z,68.00
2018-06-03T11:45:21.315Z,67.60
2018-06-03T11:47:53.994Z,67.10
2018-06-03T11:50:26.407Z,66.70
2018-06-03T11:52:58.810Z,66.60
2018-06-03T11:55:31.205Z,67.10
2018-06-03T11:58:41.123Z,68.60
2018-06-03T12:01:13.506Z,68.30
2018-06-03T12:03:45.919Z,67.50
2018-06-03T12:06:18.304Z,68.50
2018-06-03T12:08:50.998Z,68.80
2018-06-03T12:11:23.690Z,68.80
2018-06-03T12:13:56.430Z,69.10
2018-06-03T12:16:28.817Z,69.50
2018-06-03T12:19:01.247Z,69.90
2018-06-03T12:21:33.697Z,70.30
2018-06-03T12:24:06.662Z,71.40
2018-06-03T12:26:39.042Z,69.80
2018-06-03T12:29:11.691Z,70.10
2018-06-03T12:31:44.081Z,70.00
2018-06-03T12:34:16.485Z,69.60
2018-06-03T12:36:48.869Z,70.50
2018-06-03T12:39:21.595Z,71.10
2018-06-03T12:41:54.376Z,71.60
2018-06-03T12:44:27.384Z,71.30
2018-06-03T12:47:01.139Z,70.80
2018-06-03T12:49:33.593Z,70.60
2018-06-03T12:52:06.043Z,70.10
2018-06-03T12:54:38.478Z,69.40
2018-06-03T12:57:10.901Z,68.70
2018-06-03T12:59:43.638Z,69.20
2018-06-03T13:02:16.054Z,68.70
2018-06-03T13:04:48.491Z,69.70
2018-06-03T13:07:20.894Z,69.70
2018-06-03T13:09:53.298Z,69.70
2018-06-03T13:12:25.697Z,68.90
2018-06-03T13:17:30.907Z,69.20
2018-06-03T13:20:03.538Z,68.40
2018-06-03T13:22:36.165Z,68.50
2018-06-03T13:25:08.628Z,69.50
2018-06-03T13:27:41.002Z,68.20
2018-06-03T13:30:13.401Z,67.70
2018-06-03T13:32:45.798Z,66.70
2018-06-03T13:35:18.203Z,66.60
2018-06-03T13:37:50.580Z,67.30
2018-06-03T13:40:22.974Z,67.30
2018-06-03T13:42:55.412Z,68.30
2018-06-03T13:45:27.988Z,68.60
2018-06-03T13:48:00.417Z,68.20
2018-06-03T13:50:33.121Z,68.30
2018-06-03T13:53:05.764Z,68.10
2018-06-03T13:55:38.478Z,69.00
2018-06-03T13:58:11.238Z,67.30
2018-06-03T14:00:43.693Z,69.30
2018-06-03T14:03:16.702Z,69.90
2018-06-03T14:05:49.122Z,69.70
2018-06-03T14:08:21.545Z,69.70
2018-06-03T14:10:54.266Z,69.30
2018-06-03T14:13:26.680Z,69.90
2018-06-03T14:15:59.123Z,70.10
2018-06-03T14:18:31.534Z,69.90
2018-06-03T14:21:04.257Z,69.80
2018-06-03T14:23:36.675Z,69.80
2018-06-03T14:26:09.110Z,70.40
2018-06-03T14:28:41.522Z,71.50
2018-06-03T14:31:13.959Z,70.60
2018-06-03T14:33:46.626Z,70.00
2018-06-03T14:36:19.061Z,70.40
2018-06-03T14:38:51.474Z,70.30
2018-06-03T14:41:23.914Z,69.30
2018-06-03T14:43:56.286Z,68.80
2018-06-03T14:46:28.705Z,69.70
2018-06-03T14:49:01.366Z,70.90
2018-06-03T14:51:33.791Z,70.50
2018-06-03T14:54:06.468Z,68.90
2018-06-03T14:56:38.988Z,69.90
2018-06-03T14:59:11.326Z,69.40
2018-06-03T15:01:44.051Z,70.50
2018-06-03T15:04:16.430Z,71.00
2018-06-03T15:06:48.835Z,70.70
2018-06-03T15:09:21.218Z,71.40
2018-06-03T15:11:53.630Z,70.90
2018-06-03T15:14:26.318Z,71.30
2018-06-03T15:16:58.734Z,70.80
2018-06-03T15:19:31.121Z,71.50
2018-06-03T15:22:03.540Z,70.00
2018-06-03T15:24:36.233Z,69.40
2018-06-03T15:27:08.967Z,69.30
2018-06-03T15:29:41.373Z,69.20
2018-06-03T15:32:13.798Z,70.90
2018-06-03T15:37:18.505Z,69.90
2018-06-03T15:39:50.922Z,70.10
2018-06-03T15:42:23.327Z,71.50
2018-06-03T15:44:55.722Z,71.00
2018-06-03T15:47:28.133Z,71.40
2018-06-03T15:50:00.540Z,71.90
2018-06-03T15:52:32.979Z,72.70
2018-06-03T15:55:05.373Z,71.90
2018-06-03T15:57:37.823Z,71.20
2018-06-03T16:00:10.506Z,71.10
2018-06-03T16:02:42.930Z,71.40
2018-06-03T16:05:15.332Z,71.60
2018-06-03T16:07:48.096Z,71.40
2018-06-03T16:10:20.551Z,71.40
2018-06-03T16:12:52.965Z,71.90
2018-06-03T16:15:25.352Z,71.90
2018-06-03T16:17:58.073Z,71.30
2018-06-03T16:20:30.757Z,71.10
2018-06-03T16:23:03.243Z,69.60
2018-06-03T16:25:35.701Z,69.50
2018-06-03T16:28:08.176Z,69.30
2018-06-03T16:30:40.557Z,69.50
2018-06-03T16:33:13.122Z,69.90
2018-06-03T16:35:45.510Z,70.10
2018-06-03T16:38:17.946Z,70.00
2018-06-03T16:40:50.363Z,69.20
2018-06-03T16:43:22.801Z,69.70
2018-06-03T16:45:55.190Z,70.50
2018-06-03T16:48:27.597Z,70.40
2018-06-03T16:51:00.282Z,70.20
2018-06-03T16:53:32.742Z,70.30
2018-06-03T16:56:05.137Z,70.60
2018-06-03T16:58:37.539Z,71.10
2018-06-03T17:01:10.228Z,71.20
2018-06-03T17:03:42.677Z,71.50
2018-06-03T17:06:15.064Z,71.70
2018-06-03T17:08:47.477Z,72.10
2018-06-03T17:11:19.874Z,71.60
2018-06-03T17:13:52.388Z,69.70
2018-06-03T17:16:24.795Z,69.90
2018-06-03T17:18:57.232Z,70.10
2018-06-03T17:21:29.613Z,70.80
2018-06-03T17:24:02.040Z,71.10
2018-06-03T17:26:34.476Z,71.30
2018-06-03T17:29:07.207Z,71.30
2018-06-03T17:31:39.586Z,71.10
2018-06-03T17:34:12.245Z,72.70
2018-06-03T17:36:44.755Z,71.90
2018-06-03T17:39:17.166Z,72.30
2018-06-03T17:41:49.670Z,72.40
2018-06-03T17:44:22.689Z,73.30
2018-06-03T17:46:55.132Z,73.50
2018-06-03T17:49:27.565Z,73.50
2018-06-03T17:51:59.986Z,73.20
2018-06-03T17:54:32.466Z,72.50
2018-06-03T17:57:04.883Z,72.90
2018-06-03T17:59:37.335Z,72.00
2018-06-03T18:02:10.006Z,71.30
2018-06-03T18:04:42.580Z,71.60
2018-06-03T18:07:15.266Z,71.30
2018-06-03T18:09:47.951Z,71.50
2018-06-03T18:12:20.618Z,71.70
2018-06-03T18:14:53.382Z,71.70
2018-06-03T18:17:25.794Z,72.40
2018-06-03T18:19:58.245Z,73.30
2018-06-03T18:22:30.971Z,74.00
2018-06-03T18:25:03.393Z,74.40
2018-06-03T18:27:35.810Z,75.00
2018-06-03T18:30:08.241Z,74.90
2018-06-03T18:32:40.662Z,75.10
2018-06-03T18:35:13.090Z,76.20
2018-06-03T18:37:45.512Z,75.90
2018-06-03T18:40:18.445Z,75.90
2018-06-03T18:42:51.094Z,76.00
2018-06-03T18:45:23.542Z,75.70
2018-06-03T18:47:55.967Z,75.60
2018-06-03T18:50:28.390Z,75.70
2018-06-03T18:53:01.047Z,75.80
2018-06-03T18:55:33.777Z,76.00
2018-06-03T18:58:06.550Z,75.80
2018-06-03T19:00:39.209Z,76.70
2018-06-03T19:03:11.902Z,76.90
2018-06-03T19:05:44.325Z,76.90
2018-06-03T19:08:16.768Z,77.20
2018-06-03T19:10:49.198Z,77.70
2018-06-03T19:13:21.611Z,78.50
2018-06-03T19:15:54.055Z,78.60
2018-06-03T19:18:26.728Z,78.20
2018-06-03T19:20:59.164Z,78.40
2018-06-03T19:23:31.586Z,78.70
2018-06-03T19:26:04.034Z,79.40
2018-06-03T19:28:36.450Z,79.40
2018-06-03T19:31:09.266Z,80.10
2018-06-03T19:33:42.009Z,79.70
2018-06-03T19:36:14.454Z,80.10
